Time;durP1;ratioP1;P1;durP2;ratioP2;P2;SDS_P1;SDS_P2;PMS_P1;PMS_P2;Temp;Humidity;BMP_temperature;BMP_pressure;BME280_temperature;BME280_humidity;BME280_pressure;Samples;Min_cycle;Max_cycle;Signal;HPM_P1;HPM_P2
2021/10/29 00:01:50;;;;;;;20.70;14.02;;;8.60;99.90;;;;;;5054648;28;20080;-66
2021/10/29 00:04:16;;;;;;;21.00;14.00;;;8.60;99.90;;;;;;5050023;28;20098;-66
2021/10/29 00:06:41;;;;;;;23.33;15.02;;;8.50;99.90;;;;;;5035336;28;20096;-66
2021/10/29 00:09:07;;;;;;;23.30;15.73;;;8.40;99.90;;;;;;5034301;28;20018;-66
2021/10/29 00:11:32;;;;;;;21.33;14.60;;;8.50;99.90;;;;;;5034762;28;20025;-66
2021/10/29 00:13:58;;;;;;;24.02;16.13;;;8.50;99.90;;;;;;5034638;28;20596;-66
2021/10/29 00:16:24;;;;;;;22.95;15.80;;;8.40;99.90;;;;;;5034409;28;20388;-66
2021/10/29 00:18:49;;;;;;;24.90;15.65;;;8.50;99.90;;;;;;5034259;28;20388;-66
2021/10/29 00:21:15;;;;;;;28.83;15.90;;;8.40;99.90;;;;;;5033760;28;20228;-66
2021/10/29 00:23:40;;;;;;;26.15;16.25;;;8.30;99.90;;;;;;5034063;28;20030;-66
2021/10/29 00:26:06;;;;;;;25.65;16.70;;;8.30;99.90;;;;;;5034761;28;20033;-66
2021/10/29 00:28:31;;;;;;;23.90;16.75;;;8.30;99.90;;;;;;5034006;28;20028;-66
2021/10/29 00:30:57;;;;;;;28.45;16.58;;;8.30;99.90;;;;;;5034116;28;20112;-66
2021/10/29 00:33:23;;;;;;;28.17;17.33;;;8.20;99.90;;;;;;5034280;28;20030;-66
2021/10/29 00:35:48;;;;;;;32.80;17.98;;;8.20;99.90;;;;;;5046214;28;20484;-66
2021/10/29 00:38:14;;;;;;;38.17;18.70;;;8.20;99.90;;;;;;5053829;28;20040;-66
2021/10/29 00:40:40;;;;;;;32.40;16.98;;;8.20;99.90;;;;;;5052533;28;20135;-66
2021/10/29 00:43:08;;;;;;;28.42;18.60;;;8.10;99.90;;;;;;5054087;28;20427;-66
2021/10/29 00:45:34;;;;;;;23.58;16.45;;;8.10;99.90;;;;;;5053105;28;20031;-66
2021/10/29 00:47:59;;;;;;;23.13;17.35;;;8.10;99.90;;;;;;5036780;28;20117;-66
2021/10/29 00:50:25;;;;;;;29.55;18.20;;;8.00;99.90;;;;;;5033182;28;20116;-67
2021/10/29 00:52:51;;;;;;;34.33;18.23;;;8.00;99.90;;;;;;5033797;28;20432;-67
2021/10/29 00:55:16;;;;;;;34.13;19.15;;;8.00;99.90;;;;;;5033968;28;20482;-67
2021/10/29 00:57:43;;;;;;;32.05;19.67;;;8.10;99.90;;;;;;5033596;28;20074;-67
2021/10/29 01:00:10;;;;;;;31.85;19.77;;;8.10;99.90;;;;;;5033926;28;20029;-67
2021/10/29 01:02:36;;;;;;;36.72;19.17;;;8.00;99.90;;;;;;5036238;28;20076;-67
2021/10/29 01:05:04;;;;;;;29.98;18.45;;;8.00;99.90;;;;;;5053293;28;20032;-67
2021/10/29 01:07:33;;;;;;;35.22;20.13;;;8.00;99.90;;;;;;5053717;28;20063;-67
2021/10/29 01:09:58;;;;;;;35.63;20.15;;;8.00;99.90;;;;;;5053483;28;20025;-67
2021/10/29 01:12:24;;;;;;;33.33;19.88;;;8.00;99.90;;;;;;5053523;28;20034;-67
2021/10/29 01:14:54;;;;;;;37.35;21.45;;;7.90;99.90;;;;;;5052900;28;20020;-67
2021/10/29 01:17:20;;;;;;;33.42;21.38;;;7.90;99.90;;;;;;5053593;28;20400;-67
2021/10/29 01:19:50;;;;;;;36.70;22.95;;;7.90;99.90;;;;;;5053395;28;20387;-67
2021/10/29 01:22:15;;;;;;;34.35;21.50;;;7.90;99.90;;;;;;5053088;28;20025;-67
2021/10/29 01:24:41;;;;;;;35.38;22.30;;;7.90;99.90;;;;;;5053772;28;20032;-67
2021/10/29 01:27:11;;;;;;;33.92;20.98;;;7.90;99.90;;;;;;5052916;28;20021;-67
2021/10/29 01:29:38;;;;;;;30.85;20.98;;;7.90;99.90;;;;;;5042941;28;20034;-67
2021/10/29 01:32:07;;;;;;;30.13;20.75;;;7.90;99.90;;;;;;5033342;28;20429;-67
2021/10/29 01:34:37;;;;;;;34.80;21.85;;;7.90;99.90;;;;;;5041210;28;20071;-67
2021/10/29 01:37:08;;;;;;;41.10;23.85;;;7.90;99.90;;;;;;5053338;28;20033;-67
2021/10/29 01:39:34;;;;;;;35.33;23.33;;;8.00;99.90;;;;;;5052173;28;20440;-67
2021/10/29 01:42:00;;;;;;;48.20;22.63;;;8.00;99.90;;;;;;5053041;28;20017;-67
2021/10/29 01:44:25;;;;;;;37.85;23.35;;;8.00;99.90;;;;;;5052695;28;20385;-67
2021/10/29 01:46:51;;;;;;;41.92;22.83;;;8.10;99.90;;;;;;5053013;28;20044;-67
2021/10/29 01:49:17;;;;;;;35.88;22.38;;;8.00;99.90;;;;;;5051869;28;20087;-67
2021/10/29 01:51:43;;;;;;;36.70;23.00;;;7.90;99.90;;;;;;5053059;28;20038;-67
2021/10/29 01:54:09;;;;;;;39.53;22.77;;;8.00;99.90;;;;;;5052324;28;20021;-67
2021/10/29 01:56:34;;;;;;;35.70;21.33;;;8.00;99.90;;;;;;5052733;28;20369;-67
2021/10/29 01:59:00;;;;;;;46.22;23.83;;;7.90;99.90;;;;;;5056475;28;20013;-67
2021/10/29 02:01:26;;;;;;;38.22;24.30;;;7.90;99.90;;;;;;5056802;28;20191;-67
2021/10/29 02:03:52;;;;;;;35.08;22.42;;;7.90;99.90;;;;;;5056873;28;20439;-67
2021/10/29 02:06:18;;;;;;;43.13;23.17;;;7.90;99.90;;;;;;5055887;28;20140;-67
2021/10/29 02:08:45;;;;;;;39.78;22.98;;;7.80;99.90;;;;;;5056335;28;20037;-66
2021/10/29 02:11:11;;;;;;;43.20;24.95;;;7.70;99.90;;;;;;5056950;28;20029;-66
2021/10/29 02:13:36;;;;;;;35.67;23.15;;;7.80;99.90;;;;;;5056383;28;20039;-66
2021/10/29 02:16:02;;;;;;;50.90;24.02;;;7.70;99.90;;;;;;5056620;28;20075;-67
2021/10/29 02:18:28;;;;;;;51.15;26.00;;;7.60;99.90;;;;;;5055949;28;20033;-67
2021/10/29 02:20:53;;;;;;;41.28;23.02;;;7.70;99.90;;;;;;5055928;28;20021;-67
2021/10/29 02:23:19;;;;;;;40.10;24.75;;;7.70;99.90;;;;;;5056373;28;20112;-67
2021/10/29 02:25:46;;;;;;;45.53;26.95;;;7.70;99.90;;;;;;5056487;28;20105;-67
2021/10/29 02:28:17;;;;;;;42.63;25.92;;;7.80;99.90;;;;;;5056097;28;20037;-67
2021/10/29 02:30:44;;;;;;;38.67;26.05;;;7.80;99.90;;;;;;5055829;28;20029;-66
2021/10/29 02:33:10;;;;;;;46.55;26.95;;;7.80;99.90;;;;;;5056527;28;20025;-66
2021/10/29 02:35:36;;;;;;;45.35;26.08;;;7.80;99.90;;;;;;5054666;28;20032;-66
2021/10/29 02:38:02;;;;;;;41.05;26.95;;;7.70;99.90;;;;;;5056147;28;20025;-66
2021/10/29 02:40:27;;;;;;;47.70;29.20;;;7.80;99.90;;;;;;5056109;28;20040;-66
2021/10/29 02:42:53;;;;;;;43.03;27.20;;;7.80;99.90;;;;;;5055630;28;20029;-66
2021/10/29 02:45:19;;;;;;;41.97;28.65;;;7.80;99.90;;;;;;5055939;28;20545;-66
2021/10/29 02:47:47;;;;;;;42.05;26.73;;;7.80;99.90;;;;;;5056221;28;20116;-66
2021/10/29 02:50:18;;;;;;;42.83;27.05;;;7.80;99.90;;;;;;5055637;28;20037;-66
2021/10/29 02:52:45;;;;;;;45.75;26.88;;;7.70;99.90;;;;;;5055698;28;20110;-66
2021/10/29 02:55:12;;;;;;;48.40;28.63;;;7.70;99.90;;;;;;5055506;28;20079;-66
2021/10/29 02:57:38;;;;;;;43.38;27.58;;;7.70;99.90;;;;;;5056042;28;20035;-66
2021/10/29 03:00:07;;;;;;;50.92;30.30;;;7.70;99.90;;;;;;5055476;28;20492;-66
2021/10/29 03:02:33;;;;;;;56.70;28.77;;;7.80;99.90;;;;;;5056070;28;20103;-66
2021/10/29 03:04:59;;;;;;;53.78;29.17;;;7.80;99.90;;;;;;5055403;28;20029;-66
2021/10/29 03:07:25;;;;;;;53.13;28.23;;;7.80;99.90;;;;;;5055704;28;20025;-66
2021/10/29 03:09:51;;;;;;;46.55;28.15;;;7.80;99.90;;;;;;5053988;28;20051;-66
2021/10/29 03:12:17;;;;;;;47.65;28.08;;;7.80;99.90;;;;;;5055251;28;20064;-66
2021/10/29 03:14:43;;;;;;;48.75;30.08;;;7.80;99.90;;;;;;5054806;28;20052;-66
2021/10/29 03:17:09;;;;;;;48.38;29.17;;;7.80;99.90;;;;;;5055610;28;20032;-66
2021/10/29 03:19:35;;;;;;;48.15;30.42;;;7.80;99.90;;;;;;5055576;28;20021;-66
2021/10/29 03:22:00;;;;;;;46.80;29.90;;;7.80;99.90;;;;;;5055581;28;20079;-66
2021/10/29 03:24:26;;;;;;;59.75;31.50;;;7.80;99.90;;;;;;5055366;28;20496;-66
2021/10/29 03:26:51;;;;;;;46.78;29.15;;;7.80;99.90;;;;;;5054600;28;20495;-67
2021/10/29 03:29:17;;;;;;;46.38;29.92;;;7.80;99.90;;;;;;5055087;28;20107;-67
2021/10/29 03:31:42;;;;;;;50.47;28.30;;;7.80;99.90;;;;;;5055503;28;20025;-67
2021/10/29 03:34:08;;;;;;;51.38;30.15;;;7.80;99.90;;;;;;5051891;28;20375;-67
2021/10/29 03:36:34;;;;;;;51.97;29.67;;;7.90;99.90;;;;;;5034915;28;20473;-67
2021/10/29 03:39:02;;;;;;;45.85;28.35;;;7.90;99.90;;;;;;5039162;28;20024;-67
2021/10/29 03:41:31;;;;;;;45.55;28.42;;;7.90;99.90;;;;;;5054982;28;20385;-67
2021/10/29 03:44:01;;;;;;;53.53;29.85;;;7.90;99.90;;;;;;5054733;28;20033;-67
2021/10/29 03:46:29;;;;;;;46.58;28.25;;;7.90;99.90;;;;;;5055239;28;20040;-67
2021/10/29 03:49:08;;;;;;;42.63;29.15;;;7.90;99.90;;;;;;5054040;28;20029;-67
2021/10/29 03:51:38;;;;;;;52.05;30.60;;;7.90;99.90;;;;;;5055145;28;20029;-67
2021/10/29 03:54:11;;;;;;;45.25;29.20;;;7.80;99.90;;;;;;5054610;28;20496;-67
2021/10/29 03:59:22;;;;;;;44.97;27.67;;;7.70;99.90;;;;;;5054626;28;20083;-67
2021/10/29 04:01:47;;;;;;;46.08;28.13;;;7.70;99.90;;;;;;5053315;28;20025;-67
2021/10/29 04:04:13;;;;;;;50.42;29.95;;;7.70;99.90;;;;;;5054424;28;20108;-67
2021/10/29 04:06:38;;;;;;;50.58;29.35;;;7.70;99.90;;;;;;5034669;28;20026;-67
2021/10/29 04:09:04;;;;;;;46.97;28.50;;;7.70;99.90;;;;;;5034506;28;20036;-67
2021/10/29 04:11:36;;;;;;;49.17;28.02;;;7.70;99.90;;;;;;5048238;28;20025;-67
2021/10/29 04:14:02;;;;;;;53.70;26.98;;;7.70;99.90;;;;;;5054580;28;20472;-67
2021/10/29 04:16:30;;;;;;;50.03;27.98;;;7.70;99.90;;;;;;5052348;28;20476;-66
2021/10/29 04:18:55;;;;;;;51.17;30.05;;;7.70;99.90;;;;;;5054206;28;20036;-66
2021/10/29 04:21:21;;;;;;;45.03;28.27;;;7.70;99.90;;;;;;5054107;28;20029;-66
2021/10/29 04:23:46;;;;;;;43.35;27.02;;;7.70;99.90;;;;;;5053692;28;20036;-66
2021/10/29 04:26:12;;;;;;;44.30;27.15;;;7.60;99.90;;;;;;5054177;28;20040;-66
2021/10/29 04:28:41;;;;;;;45.20;27.88;;;7.60;99.90;;;;;;5053964;28;20021;-66
2021/10/29 04:31:10;;;;;;;52.78;29.38;;;7.50;99.90;;;;;;5054013;28;20025;-66
2021/10/29 04:33:35;;;;;;;47.83;26.77;;;7.50;99.90;;;;;;5054244;28;20036;-66
2021/10/29 04:36:01;;;;;;;45.17;27.35;;;7.50;99.90;;;;;;5053032;28;20025;-66
2021/10/29 04:38:26;;;;;;;50.55;28.90;;;7.50;99.90;;;;;;5053736;28;20024;-66
2021/10/29 04:40:52;;;;;;;47.85;28.45;;;7.40;99.90;;;;;;5053948;28;20021;-66
2021/10/29 04:43:18;;;;;;;44.40;27.08;;;7.40;99.90;;;;;;5053605;28;20028;-66
2021/10/29 04:45:43;;;;;;;60.25;29.20;;;7.40;99.90;;;;;;5053079;28;20028;-66
2021/10/29 04:48:09;;;;;;;48.13;29.52;;;7.40;99.90;;;;;;5053395;28;20025;-66
2021/10/29 04:50:35;;;;;;;50.13;28.90;;;7.40;99.90;;;;;;5053070;28;20120;-66
2021/10/29 04:53:01;;;;;;;42.95;26.90;;;7.30;99.90;;;;;;5053791;28;20468;-67
2021/10/29 04:55:26;;;;;;;44.08;27.33;;;7.30;99.90;;;;;;5053894;28;20079;-67
2021/10/29 04:57:54;;;;;;;43.55;26.45;;;7.30;99.90;;;;;;5053952;28;20017;-67
2021/10/29 05:00:20;;;;;;;56.63;29.58;;;7.30;99.90;;;;;;5053671;28;20025;-67
2021/10/29 05:02:45;;;;;;;54.60;28.50;;;7.30;99.90;;;;;;5052833;28;20025;-67
2021/10/29 05:05:11;;;;;;;51.15;30.27;;;7.30;99.90;;;;;;5053828;28;20036;-67
2021/10/29 05:07:37;;;;;;;44.20;28.77;;;7.30;99.90;;;;;;5053596;28;20116;-67
2021/10/29 05:10:04;;;;;;;48.40;28.38;;;7.30;99.90;;;;;;5053386;28;20040;-67
2021/10/29 05:12:30;;;;;;;50.15;27.73;;;7.30;99.90;;;;;;5052724;28;20111;-67
2021/10/29 05:14:56;;;;;;;44.05;28.70;;;7.20;99.90;;;;;;5053156;28;20049;-67
2021/10/29 05:17:21;;;;;;;54.58;29.33;;;7.20;99.90;;;;;;5053583;28;20024;-67
2021/10/29 05:19:47;;;;;;;54.67;29.17;;;7.20;99.90;;;;;;5053788;28;20029;-67
2021/10/29 05:22:13;;;;;;;57.15;28.77;;;7.20;99.90;;;;;;5053280;28;20027;-67
2021/10/29 05:24:39;;;;;;;56.20;28.75;;;7.20;99.90;;;;;;5052988;28;20514;-67
2021/10/29 05:27:05;;;;;;;49.92;29.00;;;7.20;99.90;;;;;;5052722;28;20103;-67
2021/10/29 05:29:31;;;;;;;55.10;29.20;;;7.20;99.90;;;;;;5052947;28;20025;-67
2021/10/29 05:32:00;;;;;;;52.72;28.65;;;7.30;99.90;;;;;;5052658;28;20029;-67
2021/10/29 05:34:26;;;;;;;53.92;27.65;;;7.30;99.90;;;;;;5052983;28;20036;-66
2021/10/29 05:36:51;;;;;;;54.85;29.30;;;7.30;99.90;;;;;;5053278;28;20443;-66
2021/10/29 05:39:17;;;;;;;48.42;28.98;;;7.30;99.90;;;;;;5052465;28;20399;-66
2021/10/29 05:41:47;;;;;;;49.90;29.00;;;7.20;99.90;;;;;;5053094;28;20043;-66
2021/10/29 05:44:14;;;;;;;51.08;26.98;;;7.20;99.90;;;;;;5053125;28;20380;-66
2021/10/29 05:46:42;;;;;;;48.60;27.70;;;7.30;99.90;;;;;;5053260;28;20048;-66
2021/10/29 05:49:10;;;;;;;52.78;29.27;;;7.20;99.90;;;;;;5108212;22;20024;-72
2021/10/29 05:51:43;;;;;;;43.88;26.27;;;7.20;99.90;;;;;;5052978;28;20052;-73
2021/10/29 05:54:24;;;;;;;49.95;28.38;;;7.10;99.90;;;;;;5052960;28;20025;-73
2021/10/29 05:56:50;;;;;;;49.63;28.05;;;7.10;99.90;;;;;;5051695;28;20021;-73
2021/10/29 05:59:15;;;;;;;49.72;27.35;;;7.10;99.90;;;;;;5068334;28;20024;-73
2021/10/29 06:01:42;;;;;;;42.22;27.52;;;7.10;99.90;;;;;;5051910;28;20029;-73
2021/10/29 06:04:08;;;;;;;55.30;29.33;;;7.00;99.90;;;;;;5052635;28;20476;-73
2021/10/29 06:06:34;;;;;;;48.20;29.23;;;7.00;99.90;;;;;;5052819;28;20025;-73
2021/10/29 06:08:59;;;;;;;49.67;28.63;;;7.00;99.90;;;;;;5052733;28;20033;-73
2021/10/29 06:11:26;;;;;;;52.65;28.42;;;6.90;99.90;;;;;;5052635;28;20139;-73
2021/10/29 06:13:53;;;;;;;47.08;27.30;;;6.90;99.90;;;;;;5051298;28;20106;-73
2021/10/29 06:16:18;;;;;;;49.38;27.27;;;6.80;99.90;;;;;;5052776;28;20101;-73
2021/10/29 06:18:45;;;;;;;56.53;29.27;;;6.70;99.90;;;;;;5047699;28;20057;-73
2021/10/29 06:21:11;;;;;;;50.40;28.48;;;6.60;99.90;;;;;;5051656;28;20079;-73
2021/10/29 06:23:52;;;;;;;59.30;27.52;;;6.60;99.90;;;;;;5052596;28;20021;-73
2021/10/29 06:26:25;;;;;;;51.15;28.75;;;6.60;99.90;;;;;;5052978;28;20025;-73
2021/10/29 06:28:51;;;;;;;;;;;6.50;99.90;;;;;;5051133;28;20025;-73
2021/10/29 06:31:17;;;;;;;55.33;29.98;;;6.50;99.90;;;;;;5052873;28;19951;-73
2021/10/29 06:33:43;;;;;;;61.90;29.90;;;6.50;99.90;;;;;;5051011;28;20028;-73
2021/10/29 06:36:09;;;;;;;47.55;28.23;;;6.50;99.90;;;;;;5051308;28;20021;-73
2021/10/29 06:38:37;;;;;;;58.17;29.85;;;6.40;99.90;;;;;;5052592;28;20017;-73
2021/10/29 06:41:03;;;;;;;57.80;30.08;;;6.40;99.90;;;;;;5051977;28;20369;-73
2021/10/29 06:43:33;;;;;;;61.25;30.55;;;6.40;99.90;;;;;;5051315;28;20043;-73
2021/10/29 06:48:38;;;;;;;60.85;29.67;;;6.50;99.90;;;;;;5055790;28;20107;-73
2021/10/29 07:40:00;;;;;;;46.03;26.80;;;8.00;99.90;;;;;;5055551;28;19958;-73
2021/10/29 07:43:23;;;;;;;50.30;26.90;;;8.10;99.90;;;;;;5053067;28;20032;-73
2021/10/29 07:45:24;;;;;;;45.67;25.08;;;8.20;99.90;;;;;;5051881;28;20087;-73
2021/10/29 07:47:50;;;;;;;38.78;24.08;;;8.40;99.90;;;;;;5054931;28;20029;-73
2021/10/29 07:50:18;;;;;;;42.63;22.98;;;8.50;99.90;;;;;;5053621;28;20506;-73
2021/10/29 07:52:45;;;;;;;35.55;21.48;;;8.60;99.90;;;;;;5054777;28;20025;-73
2021/10/29 07:55:12;;;;;;;38.83;23.83;;;8.70;99.90;;;;;;5053907;28;20029;-73
2021/10/29 07:57:39;;;;;;;34.42;21.95;;;8.80;99.90;;;;;;5054816;28;20021;-73
2021/10/29 08:00:07;;;;;;;37.42;21.58;;;8.80;99.90;;;;;;5054064;28;20023;-73
2021/10/29 08:02:33;;;;;;;41.47;23.05;;;8.90;99.90;;;;;;5054682;28;20032;-73
2021/10/29 08:04:59;;;;;;;34.97;19.95;;;9.00;99.90;;;;;;5054743;28;20025;-73
2021/10/29 08:07:26;;;;;;;38.00;20.40;;;9.20;99.90;;;;;;5054015;28;20500;-73
2021/10/29 08:09:52;;;;;;;32.92;20.08;;;9.30;99.90;;;;;;5053207;28;20025;-73
2021/10/29 08:12:19;;;;;;;35.65;20.48;;;9.40;99.90;;;;;;5053743;28;20100;-72
2021/10/29 08:14:47;;;;;;;31.77;19.48;;;9.40;99.90;;;;;;5054191;28;20017;-73
2021/10/29 08:17:13;;;;;;;34.05;19.00;;;9.50;99.90;;;;;;5054643;28;20021;-73
2021/10/29 08:19:39;;;;;;;34.97;19.23;;;9.60;99.90;;;;;;5054282;28;20445;-73
2021/10/29 08:22:05;;;;;;;34.75;20.15;;;9.70;99.90;;;;;;5052901;28;20104;-73
2021/10/29 08:24:32;;;;;;;28.80;18.77;;;9.80;99.90;;;;;;5054264;28;20025;-73
2021/10/29 08:26:59;;;;;;;29.17;18.65;;;9.90;99.90;;;;;;5053683;28;20075;-73
2021/10/29 08:29:25;;;;;;;33.75;19.90;;;10.00;99.90;;;;;;5054084;28;20025;-73
2021/10/29 08:31:52;;;;;;;29.52;17.20;;;10.10;99.90;;;;;;5052521;28;20036;-73
2021/10/29 08:34:20;;;;;;;32.88;19.63;;;10.30;99.90;;;;;;5053741;28;20063;-73
2021/10/29 08:36:46;;;;;;;25.92;17.65;;;10.40;99.90;;;;;;5052282;28;20422;-73
2021/10/29 08:39:14;;;;;;;29.88;16.40;;;10.40;99.90;;;;;;5053629;28;20029;-74
2021/10/29 08:41:43;;;;;;;31.25;17.10;;;10.60;99.90;;;;;;5053974;28;20108;-74
2021/10/29 08:44:10;;;;;;;26.30;16.15;;;10.70;99.90;;;;;;5053874;28;20025;-74
2021/10/29 08:46:36;;;;;;;25.23;14.73;;;10.80;99.90;;;;;;5053881;28;20052;-73
2021/10/29 08:49:02;;;;;;;34.53;15.85;;;10.90;99.90;;;;;;5052473;28;20063;-73
2021/10/29 08:51:28;;;;;;;23.63;15.27;;;11.00;99.90;;;;;;5052298;28;20056;-73
2021/10/29 08:53:55;;;;;;;24.10;15.48;;;11.10;99.90;;;;;;5053667;28;20024;-73
2021/10/29 08:56:22;;;;;;;23.52;15.07;;;11.20;99.90;;;;;;5037349;28;20032;-74
2021/10/29 08:59:13;;;;;;;21.05;14.52;;;11.40;99.90;;;;;;5040293;28;20017;-73
2021/10/29 09:32:47;;;;;;;27.00;12.68;;;12.40;99.90;;;;;;5053651;28;20090;-73
2021/10/29 09:35:16;;;;;;;25.13;14.32;;;12.50;99.90;;;;;;5052321;28;20064;-73
2021/10/29 09:38:12;;;;;;;23.17;13.73;;;12.50;99.90;;;;;;5053424;28;20097;-73
2021/10/29 09:41:03;;;;;;;25.27;13.13;;;12.60;99.90;;;;;;5052873;28;20036;-73
2021/10/29 09:43:33;;;;;;;22.25;13.52;;;12.70;99.90;;;;;;5046771;28;20496;-73
2021/10/29 09:46:05;;;;;;;20.35;13.88;;;12.80;99.90;;;;;;5053002;28;20025;-73
2021/10/29 09:48:45;;;;;;;22.83;13.82;;;12.80;99.90;;;;;;5051813;28;20039;-73
2021/10/29 09:51:15;;;;;;;22.17;13.70;;;12.80;99.90;;;;;;5052876;28;20103;-73
2021/10/29 09:53:46;;;;;;;24.10;12.93;;;12.90;99.90;;;;;;5053211;28;20108;-73
2021/10/29 09:58:55;;;;;;;21.10;13.23;;;13.00;99.90;;;;;;5053204;28;20021;-73
2021/10/29 10:01:22;;;;;;;17.33;12.23;;;13.00;99.90;;;;;;5052694;28;20017;-73
2021/10/29 10:03:50;;;;;;;24.77;13.45;;;13.10;99.90;;;;;;5052929;28;20025;-73
2021/10/29 10:06:21;;;;;;;22.95;12.45;;;13.10;99.90;;;;;;5052426;28;20036;-73
2021/10/29 10:08:48;;;;;;;21.40;11.93;;;13.20;99.90;;;;;;5053005;28;20025;-73
2021/10/29 10:11:15;;;;;;;20.77;13.32;;;13.20;99.90;;;;;;5053082;28;20083;-73
2021/10/29 10:13:43;;;;;;;19.92;13.02;;;13.20;99.90;;;;;;5052704;28;20078;-73
2021/10/29 10:16:09;;;;;;;23.98;12.68;;;13.20;99.90;;;;;;5052777;28;20025;-73
2021/10/29 10:18:35;;;;;;;21.58;12.60;;;13.30;99.90;;;;;;5053573;28;20067;-73
2021/10/29 10:21:05;;;;;;;20.33;14.13;;;13.30;99.90;;;;;;5056581;28;20025;-73
2021/10/29 10:23:35;;;;;;;26.45;12.95;;;13.30;99.90;;;;;;5055239;28;20499;-73
2021/10/29 10:29:22;;;;;;;23.10;13.02;;;13.40;99.90;;;;;;5055731;28;20032;-73
2021/10/29 10:41:00;;;;;;;21.20;13.77;;;13.60;99.90;;;;;;5056330;28;20423;-73
2021/10/29 10:46:37;;;;;;;22.63;13.05;;;13.70;99.90;;;;;;5053911;28;20075;-73
2021/10/29 10:49:12;;;;;;;21.30;12.85;;;13.80;99.90;;;;;;5053917;28;20377;-73
2021/10/29 10:51:53;;;;;;;19.40;12.32;;;13.90;99.90;;;;;;5045961;28;20041;-73
2021/10/29 10:59:45;;;;;;;22.38;13.05;;;14.10;99.90;;;;;;5055768;28;20025;-73
2021/10/29 11:10:24;;;;;;;18.13;10.63;;;14.50;99.90;;;;;;5055661;28;20021;-73
2021/10/29 11:12:50;;;;;;;19.40;11.90;;;14.80;99.90;;;;;;5055300;28;20392;-73
2021/10/29 11:15:23;;;;;;;21.73;11.82;;;14.70;99.90;;;;;;5054406;28;20028;-74
2021/10/29 11:17:57;;;;;;;21.57;12.27;;;14.90;99.90;;;;;;5055539;28;20472;-73
2021/10/29 11:20:52;;;;;;;19.98;12.35;;;14.90;99.90;;;;;;5055490;28;20021;-73
2021/10/29 11:23:21;;;;;;;21.00;12.68;;;14.90;99.90;;;;;;5055429;28;20029;-73
2021/10/29 11:25:47;;;;;;;20.30;13.00;;;15.10;99.90;;;;;;5055710;28;20025;-75
2021/10/29 11:28:13;;;;;;;20.70;12.18;;;15.30;99.90;;;;;;5055395;28;20429;-74
2021/10/29 11:30:43;;;;;;;18.30;11.07;;;15.40;99.90;;;;;;5054498;28;20155;-74
2021/10/29 11:33:09;;;;;;;17.77;11.20;;;15.50;99.90;;;;;;5054730;28;20029;-74
2021/10/29 11:35:36;;;;;;;16.75;11.90;;;15.50;99.90;;;;;;5055433;28;20110;-75
2021/10/29 11:38:04;;;;;;;21.38;12.20;;;15.50;99.90;;;;;;5053947;28;20021;-74
2021/10/29 11:40:31;;;;;;;22.10;10.82;;;15.50;99.90;;;;;;5053857;28;20038;-74
2021/10/29 11:42:57;;;;;;;21.30;12.43;;;15.50;99.90;;;;;;5054740;28;20029;-74
2021/10/29 11:45:32;;;;;;;18.17;11.40;;;15.30;99.90;;;;;;5055205;28;20021;-74
2021/10/29 11:47:57;;;;;;;18.80;11.25;;;15.20;99.90;;;;;;5054985;28;20179;-74
2021/10/29 11:50:24;;;;;;;21.50;11.80;;;15.30;99.90;;;;;;5079365;22;20536;-67
2021/10/29 11:52:49;;;;;;;16.60;11.30;;;15.50;99.90;;;;;;5054298;28;20068;-68
2021/10/29 11:55:20;;;;;;;19.13;11.50;;;15.60;99.90;;;;;;5054907;28;20025;-67
2021/10/29 11:57:53;;;;;;;18.65;12.48;;;15.70;99.90;;;;;;5055254;28;20075;-67
2021/10/29 12:00:31;;;;;;;20.15;12.05;;;15.90;99.90;;;;;;5055132;28;20021;-67
2021/10/29 12:06:10;;;;;;;18.48;11.20;;;15.90;99.90;;;;;;5054982;28;20031;-68
2021/10/29 12:08:37;;;;;;;18.03;12.00;;;15.70;99.90;;;;;;5054998;28;20086;-67
2021/10/29 12:11:06;;;;;;;16.60;10.90;;;15.70;99.90;;;;;;5054486;28;20287;-68
2021/10/29 12:13:34;;;;;;;18.08;10.32;;;15.80;99.90;;;;;;5053949;28;20027;-67
2021/10/29 12:15:59;;;;;;;21.10;10.98;;;15.90;99.90;;;;;;5054784;28;20021;-68
2021/10/29 12:18:31;;;;;;;18.88;10.52;;;16.00;99.90;;;;;;5054395;28;20060;-68
2021/10/29 12:20:57;;;;;;;18.48;11.43;;;16.20;99.90;;;;;;5053844;28;20094;-67
2021/10/29 12:23:26;;;;;;;17.58;10.55;;;16.10;99.90;;;;;;5054364;28;20476;-67
2021/10/29 12:28:34;;;;;;;18.10;11.10;;;16.20;99.90;;;;;;5054491;28;20031;-68
2021/10/29 13:02:00;;;;;;;16.02;8.88;;;18.50;99.90;;;;;;5054103;28;20024;-68
2021/10/29 13:04:43;;;;;;;13.70;9.70;;;19.00;99.90;;;;;;5053682;28;20370;-68
2021/10/29 13:07:09;;;;;;;17.00;9.93;;;18.60;99.90;;;;;;5053719;28;20033;-67
2021/10/29 13:09:37;;;;;;;14.20;10.25;;;18.40;99.90;;;;;;5036150;28;20037;-68
2021/10/29 13:12:11;;;;;;;21.38;11.07;;;18.20;99.90;;;;;;5033128;28;20026;-68
2021/10/29 13:14:59;;;;;;;20.90;10.98;;;18.20;99.90;;;;;;5041004;28;20117;-68
2021/10/29 13:17:31;;;;;;;18.35;10.57;;;17.90;99.90;;;;;;5033015;28;20024;-68
2021/10/29 13:38:20;;;;;;;21.13;11.68;;;15.90;99.90;;;;;;5053353;28;20029;-67
2021/10/29 13:51:46;;;;;;;22.33;11.35;;;16.10;99.90;;;;;;5052577;28;20047;-67
2021/10/29 13:57:02;;;;;;;16.83;11.20;;;16.00;99.90;;;;;;5057131;28;20021;-67
2021/10/29 14:29:07;;;;;;;19.65;10.70;;;16.40;99.90;;;;;;5056887;28;19994;-67
2021/10/29 14:31:46;;;;;;;16.90;10.30;;;16.30;99.90;;;;;;5055901;28;20476;-67
2021/10/29 14:34:16;;;;;;;17.10;9.30;;;16.30;99.90;;;;;;5056139;28;20036;-67
2021/10/29 14:36:50;;;;;;;14.98;10.18;;;16.40;99.90;;;;;;5056344;28;20021;-67
2021/10/29 14:39:26;;;;;;;17.30;9.02;;;16.40;99.90;;;;;;5053830;28;20017;-66
2021/10/29 14:42:07;;;;;;;17.83;9.15;;;16.60;99.90;;;;;;5056186;28;20021;-67
2021/10/29 14:44:47;;;;;;;15.25;9.45;;;16.70;99.90;;;;;;5052226;28;20025;-67
2021/10/29 14:47:25;;;;;;;20.25;9.05;;;16.80;99.90;;;;;;5056536;28;20154;-66
2021/10/29 14:50:15;;;;;;;19.30;9.85;;;16.70;99.90;;;;;;5043786;28;20436;-67
2021/10/29 14:53:10;;;;;;;14.60;9.45;;;16.50;99.90;;;;;;5035362;28;20405;-67
2021/10/29 15:24:58;;;;;;;14.65;8.82;;;14.30;99.90;;;;;;5055520;28;20028;-67
2021/10/29 15:30:00;;;;;;;16.85;9.18;;;14.10;99.90;;;;;;5055079;28;20029;-67
2021/10/29 15:45:57;;;;;;;14.18;8.35;;;13.70;99.90;;;;;;5054246;28;20021;-67
2021/10/29 15:48:28;;;;;;;23.67;9.30;;;13.60;99.90;;;;;;5052744;28;20037;-67
2021/10/29 15:50:53;;;;;;;15.05;9.25;;;13.50;99.90;;;;;;5037404;28;20032;-67
2021/10/29 15:53:19;;;;;;;17.83;8.68;;;13.40;99.90;;;;;;5055114;28;20165;-67
2021/10/29 15:55:52;;;;;;;17.65;8.80;;;13.30;99.90;;;;;;5052873;28;20025;-67
2021/10/29 15:58:36;;;;;;;21.30;8.15;;;13.20;99.90;;;;;;5037063;28;20021;-67
2021/10/29 16:01:22;;;;;;;16.70;8.02;;;13.20;99.90;;;;;;5054879;28;20031;-69
2021/10/29 16:17:11;;;;;;;13.55;8.93;;;12.90;99.90;;;;;;5040765;28;19916;-68
2021/10/29 16:19:38;;;;;;;19.20;8.95;;;12.80;99.90;;;;;;5047273;28;20036;-69
2021/10/29 16:22:15;;;;;;;21.92;10.40;;;12.70;99.90;;;;;;5046213;28;20021;-68
2021/10/29 16:24:48;;;;;;;12.60;8.88;;;12.80;99.90;;;;;;5059290;28;20099;-68
2021/10/29 16:27:13;;;;;;;15.35;9.73;;;12.70;99.90;;;;;;5043786;28;20408;-67
2021/10/29 16:29:39;;;;;;;14.63;9.63;;;12.60;99.90;;;;;;5046293;28;20021;-68
2021/10/29 16:32:14;;;;;;;18.23;9.45;;;12.60;99.90;;;;;;5049038;28;20024;-68
2021/10/29 16:34:40;;;;;;;17.50;10.10;;;12.60;99.90;;;;;;5041271;28;20065;-68
2021/10/29 16:37:06;;;;;;;20.45;10.73;;;12.60;99.90;;;;;;5046580;28;20051;-68
2021/10/29 16:39:32;;;;;;;16.60;10.18;;;12.70;99.90;;;;;;5063099;28;20507;-68
2021/10/29 16:41:57;;;;;;;17.60;10.18;;;12.60;99.90;;;;;;5043863;28;20112;-68
2021/10/29 16:44:23;;;;;;;15.50;9.55;;;12.70;99.90;;;;;;5043779;28;20029;-67
2021/10/29 16:46:51;;;;;;;19.30;10.63;;;12.60;99.90;;;;;;5047550;28;20021;-68
2021/10/29 16:49:17;;;;;;;13.75;9.43;;;12.60;99.90;;;;;;5046666;28;20514;-68
2021/10/29 16:51:43;;;;;;;18.73;9.68;;;12.60;99.90;;;;;;5045907;28;20040;-68
2021/10/29 16:54:10;;;;;;;18.52;9.00;;;12.70;99.90;;;;;;5050512;28;20400;-69
2021/10/29 16:56:36;;;;;;;18.25;9.18;;;12.70;99.90;;;;;;5049264;28;20029;-68
2021/10/29 16:59:01;;;;;;;19.40;9.48;;;12.70;99.90;;;;;;5046009;28;20048;-68
2021/10/29 17:01:27;;;;;;;16.98;8.35;;;12.60;99.90;;;;;;5046605;28;20377;-68
2021/10/29 17:03:52;;;;;;;12.93;8.38;;;12.60;99.90;;;;;;5045223;28;20480;-68
2021/10/29 17:06:18;;;;;;;19.13;9.45;;;12.60;99.90;;;;;;5047059;28;20025;-69
2021/10/29 17:08:43;;;;;;;16.05;9.45;;;12.50;99.90;;;;;;5042018;28;20033;-68
2021/10/29 17:11:13;;;;;;;18.80;7.30;;;12.60;99.90;;;;;;5041280;28;20143;-68
2021/10/29 17:13:39;;;;;;;13.18;8.45;;;12.60;99.90;;;;;;5053976;28;20059;-68